Time;durP1;ratioP1;P1;durP2;ratioP2;P2;SDS_P1;SDS_P2;PMS_P1;PMS_P2;Temp;Humidity;BMP_temperature;BMP_pressure;BME280_temperature;BME280_humidity;BME280_pressure;Samples;Min_cycle;Max_cycle;Signal;HPM_P1;HPM_P2
2021/12/18 00:01:28;;;;;;;10.30;3.80;;;;;;;3.64;76.36;101524.45;103267;1315;108453;-72
2021/12/18 00:04:01;;;;;;;10.00;3.70;;;;;;;3.61;76.37;101536.42;103257;1318;107936;-72
2021/12/18 00:06:34;;;;;;;13.30;3.70;;;;;;;3.56;76.36;101534.79;103180;1314;97863;-71
2021/12/18 00:09:08;;;;;;;10.90;3.60;;;;;;;3.53;76.50;101542.98;103220;1315;97826;-73
2021/12/18 00:11:40;;;;;;;8.80;3.10;;;;;;;3.52;76.57;101543.14;103222;1318;112417;-72
2021/12/18 00:14:12;;;;;;;8.20;3.30;;;;;;;3.50;76.64;101533.47;103221;1315;108415;-72
2021/12/18 00:16:44;;;;;;;13.00;3.90;;;;;;;3.48;76.76;101524.85;103232;1317;108022;-73
2021/12/18 00:19:17;;;;;;;8.70;3.20;;;;;;;3.50;76.96;101521.44;103242;1315;97935;-74
2021/12/18 00:21:49;;;;;;;11.90;3.90;;;;;;;3.52;77.02;101513.73;103197;1315;97834;-72
2021/12/18 00:24:21;;;;;;;9.90;3.60;;;;;;;3.51;77.01;101511.14;103234;1317;112780;-72
2021/12/18 00:26:53;;;;;;;11.10;3.30;;;;;;;3.48;77.04;101512.81;103240;1315;109845;-72
2021/12/18 00:29:25;;;;;;;10.90;3.80;;;;;;;3.45;76.87;101525.16;103208;1315;108885;-71
2021/12/18 00:31:58;;;;;;;9.40;3.70;;;;;;;3.42;77.21;101532.84;103191;1315;97845;-72
2021/12/18 00:34:30;;;;;;;9.40;3.50;;;;;;;3.42;77.17;101536.96;103806;1315;96198;-72
2021/12/18 00:37:02;;;;;;;9.50;3.50;;;;;;;3.42;77.28;101538.84;104498;1315;112741;-71
2021/12/18 00:39:39;;;;;;;10.50;3.10;;;;;;;3.43;77.19;101543.86;104593;1315;109109;-72
2021/12/18 00:42:23;;;;;;;9.10;3.30;;;;;;;3.44;77.36;101545.41;104548;1316;108902;-72
2021/12/18 00:44:58;;;;;;;12.00;3.20;;;;;;;3.45;77.19;101554.55;104585;1315;96045;-73
2021/12/18 00:47:30;;;;;;;12.80;3.80;;;;;;;3.47;77.11;101560.78;104566;1317;96274;-72
2021/12/18 00:50:03;;;;;;;13.30;3.90;;;;;;;3.49;77.04;101557.71;103306;1318;112603;-71
2021/12/18 00:52:36;;;;;;;12.30;3.70;;;;;;;3.48;77.18;101564.05;104001;1315;109534;-72
2021/12/18 00:55:10;;;;;;;9.10;3.60;;;;;;;3.48;77.20;101578.66;104147;1315;109221;-71
2021/12/18 00:57:44;;;;;;;12.80;3.60;;;;;;;3.48;77.26;101577.45;103310;1319;97944;-70
2021/12/18 01:00:22;;;;;;;12.40;3.70;;;;;;;3.45;77.25;101568.14;103215;1316;97855;-72
2021/12/18 01:02:58;;;;;;;11.50;4.10;;;;;;;3.43;77.23;101561.56;103518;1315;112615;-71
2021/12/18 01:05:33;;;;;;;10.20;3.70;;;;;;;3.42;77.19;101557.92;104493;1316;109084;-72
2021/12/18 01:08:06;;;;;;;11.70;3.20;;;;;;;3.41;77.14;101556.70;103681;1315;108979;-72
2021/12/18 01:10:54;;;;;;;11.50;3.50;;;;;;;3.37;77.09;101561.09;103425;1315;97854;-73
2021/12/18 01:13:31;;;;;;;11.70;4.10;;;;;;;3.36;77.07;101569.50;103847;1314;98314;-72
2021/12/18 01:16:11;;;;;;;9.20;3.70;;;;;;;3.34;77.28;101576.34;103289;1316;112502;-72
2021/12/18 01:24:48;;;;;;;11.70;3.80;;;;;;;3.16;77.12;101559.17;102349;1327;98641;-71
2021/12/18 01:27:21;;;;;;;9.00;3.90;;;;;;;3.13;77.32;101559.96;102713;1328;98041;-70
2021/12/18 01:29:52;;;;;;;12.20;3.60;;;;;;;3.10;77.28;101566.62;103474;1327;111261;-72
2021/12/18 01:32:26;;;;;;;10.80;4.10;;;;;;;3.09;77.43;101561.79;103299;1330;108909;-72
2021/12/18 01:34:58;;;;;;;10.10;4.20;;;;;;;3.07;77.40;101559.86;102531;1333;108778;-72
2021/12/18 01:37:30;;;;;;;8.10;3.70;;;;;;;3.08;77.46;101563.83;102277;1326;97982;-71
2021/12/18 01:40:02;;;;;;;9.90;4.30;;;;;;;3.09;77.32;101566.42;103102;1327;97742;-72
2021/12/18 01:45:26;;;;;;;11.70;4.60;;;;;;;3.06;77.24;101572.89;102092;1332;109111;-72
2021/12/18 01:53:38;;;;;;;11.50;4.30;;;;;;;2.90;77.22;101581.84;102399;1326;98281;-72
2021/12/18 01:56:10;;;;;;;11.50;4.00;;;;;;;2.81;77.22;101580.98;102475;1330;113031;-72
2021/12/18 01:58:44;;;;;;;11.10;4.70;;;;;;;2.76;77.38;101580.71;103030;1326;108975;-72
2021/12/18 02:01:17;;;;;;;10.60;4.30;;;;;;;2.74;77.21;101591.31;102958;1320;109278;-71
2021/12/18 02:03:50;;;;;;;12.10;5.20;;;;;;;2.72;77.27;101593.00;102732;1321;97942;-72
2021/12/18 02:06:23;;;;;;;15.60;5.10;;;;;;;2.67;77.25;101582.55;103215;1321;96589;-72
2021/12/18 02:08:55;;;;;;;13.40;4.90;;;;;;;2.62;77.36;101574.39;103058;1320;111487;-71
2021/12/18 02:11:29;;;;;;;14.50;5.30;;;;;;;2.57;77.34;101589.55;103211;1321;109090;-70
2021/12/18 02:19:57;;;;;;;14.40;5.00;;;;;;;2.28;77.36;101579.13;102920;1322;97991;-71
2021/12/18 02:22:29;;;;;;;13.20;5.50;;;;;;;2.15;77.49;101585.34;103554;1326;112711;-72
2021/12/18 02:25:01;;;;;;;10.80;4.60;;;;;;;2.06;77.67;101583.23;104530;1316;110896;-72
2021/12/18 02:27:33;;;;;;;13.40;5.10;;;;;;;1.97;77.64;101576.33;104140;1319;108721;-72
2021/12/18 02:30:08;;;;;;;13.00;5.10;;;;;;;1.92;77.83;101580.66;104543;1315;96462;-72
2021/12/18 02:32:40;;;;;;;11.20;4.60;;;;;;;1.88;77.88;101583.83;104562;1318;95917;-72
2021/12/18 02:35:22;;;;;;;15.00;4.40;;;;;;;1.85;78.04;101580.84;104593;1315;112371;-72
2021/12/18 02:38:02;;;;;;;13.00;4.80;;;;;;;1.81;77.97;101578.16;104549;1315;108656;-72
2021/12/18 02:43:27;;;;;;;12.40;4.80;;;;;;;1.67;78.08;101576.30;103401;1317;95896;-72
2021/12/18 02:46:00;;;;;;;10.50;4.80;;;;;;;1.61;78.17;101575.43;103894;1318;96161;-71
2021/12/18 02:48:32;;;;;;;16.30;4.90;;;;;;;1.54;78.22;101573.70;103438;1316;111883;-70
2021/12/18 02:51:05;;;;;;;12.10;5.20;;;;;;;1.49;78.50;101577.02;104518;1315;109081;-72
2021/12/18 02:53:42;;;;;;;12.50;4.80;;;;;;;1.48;78.57;101575.64;104523;1314;108928;-71
2021/12/18 02:56:15;;;;;;;14.80;5.20;;;;;;;1.48;78.54;101575.46;104560;1315;96094;-72
2021/12/18 02:58:50;;;;;;;12.60;5.20;;;;;;;1.47;78.67;101575.61;103392;1316;97849;-71
2021/12/18 03:01:25;;;;;;;15.80;5.50;;;;;;;1.44;78.50;101581.52;103156;1315;112107;-71
2021/12/18 03:03:59;;;;;;;13.60;4.80;;;;;;;1.38;78.35;101586.66;103822;1315;108964;-71
2021/12/18 03:06:36;;;;;;;15.50;5.60;;;;;;;1.33;78.59;101591.16;103411;1315;108976;-72
2021/12/18 03:09:46;;;;;;;12.20;6.00;;;;;;;1.29;78.54;101594.13;103235;1314;97829;-71
2021/12/18 03:21:52;;;;;;;12.30;4.30;;;;;;;1.23;79.31;101586.94;102940;1321;108813;-72
2021/12/18 03:24:23;;;;;;;15.90;5.20;;;;;;;1.29;79.63;101575.81;102875;1321;97981;-72
2021/12/18 03:26:55;;;;;;;13.80;5.00;;;;;;;1.40;79.93;101563.39;103734;1321;98009;-71
2021/12/18 03:29:27;;;;;;;13.10;5.40;;;;;;;1.44;79.60;101554.62;102961;1321;112707;-71
2021/12/18 03:31:59;;;;;;;11.90;4.80;;;;;;;1.48;79.85;101547.86;103473;1321;108956;-72
2021/12/18 03:34:31;;;;;;;14.30;5.60;;;;;;;1.53;79.91;101550.20;104073;1321;108768;-72
2021/12/18 03:37:03;;;;;;;11.10;4.90;;;;;;;1.54;79.89;101545.09;104157;1321;96083;-73
2021/12/18 03:39:36;;;;;;;12.70;5.00;;;;;;;1.55;79.91;101553.52;103741;1321;97872;-72
2021/12/18 03:42:09;;;;;;;10.70;5.20;;;;;;;1.60;79.96;101562.05;104203;1316;112605;-72
2021/12/18 03:44:41;;;;;;;13.80;5.20;;;;;;;1.66;80.08;101565.46;103027;1321;107708;-71
2021/12/18 03:47:14;;;;;;;11.10;4.80;;;;;;;1.70;79.96;101564.88;103582;1321;108799;-72
2021/12/18 03:49:46;;;;;;;13.30;5.10;;;;;;;1.75;80.04;101580.09;102960;1328;96132;-72
2021/12/18 03:52:18;;;;;;;14.60;5.20;;;;;;;1.85;80.23;101583.09;103082;1323;97795;-72
2021/12/18 03:54:50;;;;;;;13.10;5.30;;;;;;;1.94;79.98;101575.56;104245;1315;112540;-72
2021/12/18 03:57:23;;;;;;;10.70;4.70;;;;;;;1.96;80.02;101573.89;104544;1315;108884;-71
2021/12/18 03:59:55;;;;;;;12.50;5.00;;;;;;;1.94;79.85;101576.77;103662;1320;107022;-71
2021/12/18 04:02:27;;;;;;;11.90;5.40;;;;;;;1.94;79.74;101582.77;104154;1315;97900;-72
2021/12/18 04:04:59;;;;;;;13.80;5.70;;;;;;;1.90;79.61;101581.98;104183;1315;95771;-71
2021/12/18 04:07:37;;;;;;;17.20;5.90;;;;;;;1.87;79.89;101578.84;103864;1315;112182;-70
2021/12/18 04:10:12;;;;;;;16.20;5.50;;;;;;;1.89;79.78;101575.78;103249;1315;108152;-70
2021/12/18 04:12:44;;;;;;;10.80;5.00;;;;;;;1.92;79.89;101578.95;104567;1315;108812;-71
2021/12/18 04:15:16;;;;;;;10.00;4.60;;;;;;;1.98;80.12;101580.64;104577;1315;96222;-71
2021/12/18 04:17:47;;;;;;;11.10;5.20;;;;;;;2.01;79.98;101578.67;104605;1316;96126;-71
2021/12/18 04:20:19;;;;;;;13.50;5.00;;;;;;;2.02;80.08;101577.31;103476;1323;112478;-71
2021/12/18 04:22:52;;;;;;;12.70;5.40;;;;;;;2.02;79.95;101569.26;104554;1316;108999;-72
2021/12/18 04:25:24;;;;;;;13.50;5.70;;;;;;;1.99;79.93;101567.29;104010;1315;108658;-72
2021/12/18 04:27:56;;;;;;;18.00;6.00;;;;;;;1.97;80.17;101562.25;103440;1314;97847;-71
2021/12/18 04:30:28;;;;;;;11.20;5.30;;;;;;;1.97;80.17;101566.20;103220;1315;97831;-71
2021/12/18 04:33:00;;;;;;;10.10;5.30;;;;;;;1.97;80.32;101567.23;104066;1315;113103;-71
2021/12/18 04:35:33;;;;;;;14.90;5.80;;;;;;;1.99;80.32;101567.14;104528;1317;109237;-72
2021/12/18 04:38:05;;;;;;;14.10;5.50;;;;;;;1.99;80.44;101565.42;104566;1315;107967;-71
2021/12/18 04:40:37;;;;;;;11.10;5.00;;;;;;;2.02;80.48;101558.29;104556;1312;96109;-72
2021/12/18 04:43:09;;;;;;;13.60;5.60;;;;;;;2.07;80.56;101561.48;104256;1317;95977;-72
2021/12/18 04:45:41;;;;;;;15.30;6.70;;;;;;;2.10;80.66;101557.42;104503;1318;111727;-72
2021/12/18 04:48:13;;;;;;;12.50;5.70;;;;;;;2.14;80.55;101558.19;103955;1316;109076;-72
2021/12/18 04:50:45;;;;;;;15.20;6.50;;;;;;;2.13;80.44;101549.44;103241;1316;109034;-71
2021/12/18 04:53:17;;;;;;;15.50;6.30;;;;;;;2.11;80.45;101544.73;103215;1315;97906;-71
2021/12/18 04:55:49;;;;;;;14.30;5.80;;;;;;;2.11;80.51;101541.31;103266;1315;97988;-71
2021/12/18 04:58:22;;;;;;;12.70;6.20;;;;;;;2.12;80.61;101542.71;103190;1317;111627;-71
2021/12/18 05:00:55;;;;;;;13.80;5.90;;;;;;;2.15;80.67;101540.57;103233;1316;109364;-71
2021/12/18 05:03:27;;;;;;;11.40;5.10;;;;;;;2.17;80.76;101541.81;103261;1317;108930;-71
2021/12/18 05:06:02;;;;;;;12.00;6.00;;;;;;;2.21;80.80;101547.05;103197;1315;97853;-71
2021/12/18 05:08:34;;;;;;;17.60;6.30;;;;;;;2.24;80.78;101549.35;103262;1314;98217;-72
2021/12/18 05:11:06;;;;;;;13.00;6.00;;;;;;;2.27;80.79;101550.95;103297;1314;112494;-71
2021/12/18 05:13:38;;;;;;;14.50;6.10;;;;;;;2.23;80.57;101551.73;103310;1315;109099;-72
2021/12/18 05:16:10;;;;;;;13.80;6.60;;;;;;;2.17;80.44;101545.39;103223;1315;108935;-71
2021/12/18 05:18:42;;;;;;;13.60;6.50;;;;;;;2.12;80.71;101540.48;103214;1316;97864;-70
2021/12/18 05:21:14;;;;;;;10.30;5.60;;;;;;;2.08;80.57;101536.80;104083;1315;95790;-72
2021/12/18 05:23:46;;;;;;;15.80;5.80;;;;;;;2.05;80.60;101535.03;103274;1315;112562;-72
2021/12/18 05:26:18;;;;;;;16.60;5.60;;;;;;;2.05;80.77;101531.58;103256;1314;108902;-71
2021/12/18 05:28:51;;;;;;;12.30;5.50;;;;;;;2.08;80.97;101532.00;103328;1317;109013;-71
2021/12/18 05:31:22;;;;;;;12.70;5.60;;;;;;;2.16;81.01;101524.81;103243;1314;98029;-71
2021/12/18 05:33:59;;;;;;;15.20;6.20;;;;;;;2.16;80.73;101521.56;103495;1317;97840;-72
2021/12/18 05:36:36;;;;;;;11.90;5.80;;;;;;;2.15;80.74;101529.23;103396;1317;112437;-71
2021/12/18 05:39:10;;;;;;;14.90;6.90;;;;;;;2.14;80.83;101534.69;103237;1316;108763;-71
2021/12/18 05:41:42;;;;;;;16.30;6.40;;;;;;;2.13;80.81;101533.98;103232;1315;108587;-71
2021/12/18 05:44:15;;;;;;;14.10;6.00;;;;;;;2.11;81.00;101538.23;103243;1316;98096;-71
2021/12/18 05:46:47;;;;;;;13.00;6.10;;;;;;;2.13;80.97;101539.13;103235;1314;97899;-72
2021/12/18 05:49:20;;;;;;;17.30;6.50;;;;;;;2.13;80.98;101547.55;103237;1316;110903;-70
2021/12/18 05:51:52;;;;;;;13.50;5.80;;;;;;;2.14;80.92;101544.82;103248;1316;108909;-71
2021/12/18 05:54:24;;;;;;;13.80;6.20;;;;;;;2.17;80.98;101543.70;103177;1315;109274;-71
2021/12/18 05:56:56;;;;;;;11.40;5.80;;;;;;;2.20;80.92;101544.13;103405;1315;97944;-72
2021/12/18 05:59:28;;;;;;;13.00;6.00;;;;;;;2.24;81.07;101545.06;103285;1315;97940;-71
2021/12/18 06:02:00;;;;;;;17.00;6.00;;;;;;;2.30;81.08;101541.41;103238;1315;112597;-72
2021/12/18 06:04:33;;;;;;;19.90;6.30;;;;;;;2.31;80.84;101543.66;103276;1316;108930;-70
2021/12/18 06:07:07;;;;;;;13.90;6.20;;;;;;;2.29;80.79;101545.50;103240;1314;108845;-71
2021/12/18 06:09:39;;;;;;;14.80;6.40;;;;;;;2.28;80.79;101541.52;104565;1313;96066;-71
2021/12/18 06:12:12;;;;;;;15.80;6.70;;;;;;;2.25;80.76;101540.45;103851;1315;96011;-71
2021/12/18 06:14:44;;;;;;;13.40;6.30;;;;;;;2.22;80.57;101539.70;103741;1316;112784;-71
2021/12/18 06:17:16;;;;;;;14.20;5.80;;;;;;;2.22;80.61;101537.45;103255;1314;109060;-71
2021/12/18 06:19:48;;;;;;;13.80;5.60;;;;;;;2.24;80.72;101533.04;103190;1320;108797;-71
2021/12/18 06:22:20;;;;;;;16.20;5.40;;;;;;;2.27;80.89;101534.83;103208;1317;97835;-71
2021/12/18 06:24:53;;;;;;;13.60;6.00;;;;;;;2.31;80.92;101535.08;103279;1315;97864;-72
2021/12/18 06:27:24;;;;;;;17.70;6.30;;;;;;;2.35;80.92;101535.86;103235;1318;112453;-71
2021/12/18 06:29:56;;;;;;;12.00;5.70;;;;;;;2.36;80.69;101538.31;103268;1316;108756;-71
2021/12/18 06:32:28;;;;;;;14.40;5.60;;;;;;;2.36;80.73;101540.70;103306;1316;109090;-71
2021/12/18 06:35:00;;;;;;;14.80;5.20;;;;;;;2.36;80.63;101542.08;103276;1319;97858;-71
2021/12/18 06:37:33;;;;;;;14.10;6.00;;;;;;;2.35;80.67;101548.73;103134;1320;210000;-71
2021/12/18 06:40:07;;;;;;;13.90;5.60;;;;;;;2.34;80.66;101550.26;103263;1315;112115;-71
2021/12/18 06:42:42;;;;;;;19.20;5.50;;;;;;;2.33;80.65;101543.20;103621;1314;109080;-71
2021/12/18 06:45:15;;;;;;;12.40;5.10;;;;;;;2.34;80.53;101539.09;103459;1316;109078;-71
2021/12/18 06:47:47;;;;;;;11.50;5.20;;;;;;;2.35;80.66;101531.25;103245;1314;97868;-71
2021/12/18 06:50:19;;;;;;;14.50;5.00;;;;;;;2.35;80.62;101523.52;103263;1314;97882;-71
2021/12/18 06:52:51;;;;;;;10.90;5.00;;;;;;;2.38;80.68;101518.77;103322;1319;112371;-71
2021/12/18 06:55:23;;;;;;;11.40;4.80;;;;;;;2.41;80.69;101512.64;103259;1317;108954;-70
2021/12/18 06:57:56;;;;;;;13.40;5.00;;;;;;;2.40;80.53;101519.16;103206;1315;108862;-71
2021/12/18 07:00:29;;;;;;;18.80;6.70;;;;;;;2.37;80.53;101528.20;104566;1314;96248;-71
2021/12/18 07:03:01;;;;;;;9.20;4.60;;;;;;;2.33;80.47;101522.59;104578;1315;95906;-71
2021/12/18 07:05:34;;;;;;;12.30;4.70;;;;;;;2.31;80.50;101512.94;104551;1316;112556;-71
2021/12/18 07:08:07;;;;;;;12.50;5.00;;;;;;;2.30;80.47;101508.98;104583;1315;109572;-71
2021/12/18 07:10:39;;;;;;;11.40;4.70;;;;;;;2.34;80.67;101506.50;104571;1315;108880;-71
2021/12/18 07:13:11;;;;;;;10.00;5.10;;;;;;;2.35;80.64;101496.06;104570;1316;96221;-71
2021/12/18 07:15:43;;;;;;;14.40;5.40;;;;;;;2.35;80.55;101496.39;103735;1322;95819;-71
2021/12/18 07:18:15;;;;;;;14.90;6.00;;;;;;;2.33;80.35;101490.14;103925;1315;111057;-72
2021/12/18 07:20:48;;;;;;;13.70;6.70;;;;;;;2.32;80.56;101489.97;104616;1316;106583;-72
2021/12/18 07:23:20;;;;;;;15.30;6.30;;;;;;;2.33;80.42;101486.37;103895;1316;108840;-71
2021/12/18 07:25:52;;;;;;;14.50;6.40;;;;;;;2.35;80.45;101485.77;104525;1316;96422;-71
2021/12/18 07:28:24;;;;;;;14.90;6.10;;;;;;;2.37;80.42;101489.22;104580;1315;97094;-71
2021/12/18 07:30:56;;;;;;;15.20;6.30;;;;;;;2.38;80.50;101499.38;103576;1315;111439;-72
2021/12/18 07:33:28;;;;;;;15.60;6.50;;;;;;;2.40;80.40;101498.72;103266;1315;109045;-71
2021/12/18 07:36:00;;;;;;;15.50;7.50;;;;;;;2.41;80.39;101494.13;103272;1315;108926;-71
2021/12/18 07:38:32;;;;;;;18.00;8.60;;;;;;;2.40;80.31;101496.67;103279;1315;97858;-72
2021/12/18 07:41:04;;;;;;;18.00;10.20;;;;;;;2.40;80.52;101509.36;103244;1315;98645;-72
2021/12/18 07:43:37;;;;;;;19.30;10.10;;;;;;;2.38;80.53;101516.54;103351;1315;112792;-72
2021/12/18 07:46:09;;;;;;;19.60;10.70;;;;;;;2.33;80.46;101516.77;103293;1315;109145;-72
2021/12/18 07:48:41;;;;;;;18.90;10.20;;;;;;;2.27;80.59;101519.71;103316;1315;108764;-72
2021/12/18 07:51:13;;;;;;;18.30;10.90;;;;;;;2.24;80.72;101524.64;103297;1319;97980;-72
2021/12/18 07:53:45;;;;;;;17.60;9.80;;;;;;;2.25;80.79;101526.89;103248;1316;97990;-72
2021/12/18 07:56:18;;;;;;;15.80;9.60;;;;;;;2.25;80.71;101535.64;103256;1316;112461;-72
2021/12/18 07:58:51;;;;;;;18.50;11.40;;;;;;;2.24;80.68;101530.47;103556;1322;107274;-72
2021/12/18 08:01:23;;;;;;;18.20;11.80;;;;;;;2.27;80.89;101522.13;104057;1315;107971;-73
2021/12/18 08:03:55;;;;;;;19.50;12.20;;;;;;;2.31;81.03;101519.12;103240;1318;97866;-72
2021/12/18 08:06:27;;;;;;;21.70;12.30;;;;;;;2.34;80.85;101518.50;103274;1316;97958;-72
2021/12/18 08:08:59;;;;;;;24.90;13.70;;;;;;;2.32;80.85;101519.83;103264;1315;112717;-73
2021/12/18 08:11:31;;;;;;;25.60;12.60;;;;;;;2.30;80.90;101520.46;103243;1315;109822;-73
2021/12/18 08:14:03;;;;;;;22.70;12.70;;;;;;;2.29;81.02;101517.17;103382;1318;108858;-73
2021/12/18 08:16:36;;;;;;;28.40;14.40;;;;;;;2.29;80.97;101517.70;103258;1316;97896;-73
2021/12/18 08:19:08;;;;;;;21.90;12.20;;;;;;;2.29;81.10;101523.89;103287;1316;97876;-71
2021/12/18 08:21:40;;;;;;;19.60;11.50;;;;;;;2.33;81.22;101525.67;103336;1317;112197;-73
2021/12/18 08:24:12;;;;;;;21.00;12.40;;;;;;;2.37;81.21;101514.64;103282;1315;108408;-72
2021/12/18 08:26:44;;;;;;;22.30;12.80;;;;;;;2.37;81.08;101510.17;103256;1316;110125;-72
2021/12/18 08:29:16;;;;;;;21.30;12.90;;;;;;;2.35;80.87;101500.70;103296;1315;97858;-72
2021/12/18 08:31:48;;;;;;;24.90;14.30;;;;;;;2.32;81.03;101498.19;103288;1315;97768;-71
2021/12/18 08:34:22;;;;;;;24.80;13.90;;;;;;;2.31;81.04;101494.39;103272;1315;112369;-73
2021/12/18 08:36:54;;;;;;;27.70;13.10;;;;;;;2.29;81.07;101490.60;104583;1317;109828;-71
2021/12/18 08:39:31;;;;;;;28.20;13.10;;;;;;;2.30;81.18;101488.37;104538;1317;109315;-72
2021/12/18 08:42:05;;;;;;;27.50;12.70;;;;;;;2.30;81.18;101490.27;103561;1314;97868;-71
2021/12/18 08:44:37;;;;;;;24.90;13.70;;;;;;;2.31;81.32;101490.95;103322;1315;97882;-70
2021/12/18 08:47:10;;;;;;;32.60;14.40;;;;;;;2.32;81.33;101490.30;103281;1320;112067;-73
2021/12/18 08:49:42;;;;;;;30.60;14.80;;;;;;;2.31;81.49;101492.70;103280;1318;109301;-72
2021/12/18 08:52:14;;;;;;;31.10;16.20;;;;;;;2.33;81.47;101487.94;103227;1315;108810;-72
2021/12/18 08:54:46;;;;;;;33.90;17.20;;;;;;;2.31;81.27;101481.88;103249;1315;97879;-72
2021/12/18 08:57:18;;;;;;;33.70;18.50;;;;;;;2.29;81.38;101474.80;103188;1316;97858;-71
2021/12/18 08:59:50;;;;;;;32.70;18.70;;;;;;;2.27;81.42;101469.27;103286;1315;113818;-72
2021/12/18 09:02:23;;;;;;;43.80;19.20;;;;;;;2.26;81.54;101458.43;103142;1315;108625;-71
2021/12/18 09:04:55;;;;;;;36.80;19.00;;;;;;;2.29;81.88;101448.53;103264;1315;108981;-71
2021/12/18 09:07:27;;;;;;;40.70;19.20;;;;;;;2.30;81.89;101438.95;103197;1317;97830;-71
2021/12/18 09:09:59;;;;;;;40.30;18.50;;;;;;;2.30;81.74;101437.39;103277;1315;97869;-70
2021/12/18 09:12:31;;;;;;;42.30;19.30;;;;;;;2.26;81.62;101431.16;103228;1314;112197;-72
2021/12/18 09:15:04;;;;;;;38.50;18.50;;;;;;;2.23;81.70;101437.42;103301;1316;109042;-73
2021/12/18 09:17:36;;;;;;;40.00;19.30;;;;;;;2.21;81.61;101435.50;104561;1314;107840;-72
2021/12/18 09:20:10;;;;;;;37.30;19.90;;;;;;;2.18;81.71;101436.14;104572;1317;95841;-73
2021/12/18 09:22:42;;;;;;;44.60;20.10;;;;;;;2.14;81.80;101427.79;103396;1316;97831;-73
2021/12/18 09:25:14;;;;;;;34.10;18.70;;;;;;;2.12;81.81;101420.38;103263;1315;112591;-73
2021/12/18 09:27:47;;;;;;;35.70;18.40;;;;;;;2.07;81.90;101419.27;103260;1315;109562;-72
2021/12/18 09:30:19;;;;;;;35.80;18.90;;;;;;;2.05;81.89;101417.67;103255;1315;108854;-71
2021/12/18 09:32:51;;;;;;;35.40;18.00;;;;;;;2.03;81.93;101410.60;103242;1315;97896;-72
2021/12/18 09:35:23;;;;;;;34.60;18.20;;;;;;;2.05;82.30;101408.58;103287;1315;97953;-72
2021/12/18 09:37:55;;;;;;;31.30;16.60;;;;;;;2.07;82.31;101406.05;104595;1319;111938;-73
2021/12/18 09:40:28;;;;;;;31.80;17.60;;;;;;;2.06;82.19;101400.36;103490;1314;108731;-73
2021/12/18 09:42:59;;;;;;;34.50;19.00;;;;;;;2.07;82.42;101408.61;103183;1315;108867;-73
2021/12/18 09:45:32;;;;;;;36.00;18.80;;;;;;;2.06;82.31;101412.72;103166;1315;97832;-72
2021/12/18 09:48:06;;;;;;;28.80;17.40;;;;;;;2.06;82.59;101413.91;103276;1315;97839;-71
2021/12/18 09:50:41;;;;;;;30.00;15.70;;;;;;;2.08;82.62;101407.61;103286;1315;112575;-71
2021/12/18 09:53:14;;;;;;;25.70;15.30;;;;;;;2.08;82.47;101406.06;103308;1315;108707;-73
2021/12/18 09:55:46;;;;;;;27.40;15.20;;;;;;;2.05;82.65;101394.70;103132;1315;108863;-72
2021/12/18 09:58:19;;;;;;;31.10;17.60;;;;;;;2.09;82.80;101385.48;103267;1315;97865;-71
2021/12/18 10:00:51;;;;;;;30.20;17.60;;;;;;;2.15;82.79;101385.80;103357;1315;97887;-73
2021/12/18 10:03:39;;;;;;;27.90;17.80;;;;;;;2.19;82.83;101385.03;103962;1314;111378;-72
2021/12/18 10:06:37;;;;;;;33.30;19.70;;;;;;;2.21;82.62;101374.77;103322;1317;109280;-71
2021/12/18 10:09:12;;;;;;;32.30;18.90;;;;;;;2.16;82.57;101377.23;103348;1319;110529;-72
2021/12/18 10:11:50;;;;;;;34.00;18.10;;;;;;;2.09;82.48;101373.67;103306;1316;97865;-71
2021/12/18 10:14:34;;;;;;;35.20;19.30;;;;;;;2.08;82.74;101372.26;103217;1316;97896;-72
2021/12/18 10:17:20;;;;;;;35.40;19.90;;;;;;;2.10;83.03;101364.23;103301;1320;112567;-72
2021/12/18 10:19:53;;;;;;;33.30;20.10;;;;;;;2.13;83.00;101365.16;103302;1315;106815;-73
2021/12/18 10:22:25;;;;;;;36.60;21.00;;;;;;;2.20;83.11;101354.33;103246;1315;108642;-72
2021/12/18 10:25:07;;;;;;;41.40;22.00;;;;;;;2.22;83.05;101348.88;103277;1317;97919;-73
2021/12/18 10:27:42;;;;;;;44.30;24.90;;;;;;;2.21;82.78;101343.71;103759;1317;97829;-72
2021/12/18 10:30:20;;;;;;;55.20;25.70;;;;;;;2.16;82.94;101341.20;103221;1316;112709;-71
2021/12/18 10:33:00;;;;;;;53.00;25.70;;;;;;;2.13;83.01;101338.73;104562;1316;108954;-73
2021/12/18 10:35:48;;;;;;;52.00;23.90;;;;;;;2.09;83.08;101330.94;104607;1317;108871;-71
2021/12/18 10:38:38;;;;;;;45.70;22.00;;;;;;;2.06;83.05;101324.02;104286;1317;96019;-74
2021/12/18 10:41:28;;;;;;;45.00;22.40;;;;;;;2.04;83.26;101315.59;103234;1316;97891;-72
2021/12/18 10:44:07;;;;;;;42.40;20.90;;;;;;;2.04;83.20;101317.98;103751;1315;112760;-71
2021/12/18 10:46:41;;;;;;;40.40;20.10;;;;;;;2.04;83.24;101322.61;103520;1316;107251;-73
2021/12/18 10:49:14;;;;;;;37.00;19.60;;;;;;;2.04;83.33;101309.23;103184;1316;108883;-72
2021/12/18 10:51:50;;;;;;;38.60;20.20;;;;;;;2.02;83.20;101306.47;103296;1315;97933;-73
2021/12/18 10:54:23;;;;;;;40.20;20.10;;;;;;;2.02;83.19;101303.53;103258;1315;97857;-72
2021/12/18 10:56:56;;;;;;;36.20;19.30;;;;;;;2.01;83.50;101295.29;103193;1316;112475;-73
2021/12/18 10:59:31;;;;;;;36.40;19.20;;;;;;;1.97;83.33;101289.54;103243;1316;109077;-72
2021/12/18 11:02:05;;;;;;;36.70;19.80;;;;;;;1.96;83.54;101280.23;104574;1317;109128;-73
2021/12/18 11:04:39;;;;;;;30.70;18.60;;;;;;;1.97;83.51;101275.46;104534;1316;95982;-72
2021/12/18 11:07:22;;;;;;;33.10;19.40;;;;;;;2.00;83.57;101271.77;103913;1320;98376;-73
2021/12/18 11:10:12;;;;;;;34.90;20.50;;;;;;;2.05;83.66;101267.41;103291;1317;112708;-72
2021/12/18 11:15:35;;;;;;;40.70;23.90;;;;;;;2.03;83.46;101251.07;103238;1316;108609;-71
2021/12/18 11:18:08;;;;;;;42.60;25.00;;;;;;;2.01;83.47;101258.41;103247;1316;98014;-73
2021/12/18 11:20:41;;;;;;;41.60;24.80;;;;;;;1.96;83.49;101254.54;103188;1315;97883;-72
2021/12/18 11:23:13;;;;;;;36.10;22.70;;;;;;;1.93;83.54;101251.04;103151;1315;111512;-73
2021/12/18 11:25:46;;;;;;;33.90;21.40;;;;;;;1.90;83.75;101242.41;103183;1317;108490;-72
2021/12/18 11:28:18;;;;;;;37.70;21.80;;;;;;;1.89;83.89;101246.67;103082;1316;108401;-72
2021/12/18 11:30:53;;;;;;;38.00;22.00;;;;;;;1.88;83.95;101244.95;103150;1317;97856;-71
2021/12/18 11:33:25;;;;;;;40.50;22.30;;;;;;;1.87;83.96;101240.14;104586;1317;96010;-72
2021/12/18 11:36:00;;;;;;;42.30;22.70;;;;;;;1.89;84.07;101238.45;104105;1320;112529;-72
2021/12/18 11:38:33;;;;;;;41.80;24.90;;;;;;;1.91;84.08;101233.51;103871;1316;108725;-72
2021/12/18 11:41:05;;;;;;;39.10;23.70;;;;;;;1.92;84.18;101242.10;103224;1317;108525;-73
2021/12/18 11:43:41;;;;;;;45.10;25.50;;;;;;;1.91;84.07;101241.92;103236;1316;97861;-72
2021/12/18 11:46:30;;;;;;;42.90;24.20;;;;;;;1.85;84.17;101237.52;103270;1316;97922;-71
2021/12/18 11:49:05;;;;;;;43.00;23.00;;;;;;;1.80;84.18;101228.01;103233;1315;112570;-72
2021/12/18 11:51:38;;;;;;;40.50;21.70;;;;;;;1.79;84.49;101220.06;103310;1314;108845;-72
2021/12/18 11:54:48;;;;;;;36.10;19.80;;;;;;;1.78;84.50;101230.52;103242;1317;108739;-71
2021/12/18 11:57:43;;;;;;;37.50;19.20;;;;;;;1.80;84.67;101217.02;103251;1315;97960;-70
2021/12/18 12:00:45;;;;;;;38.20;20.40;;;;;;;1.82;84.62;101214.66;103263;1317;97912;-72
2021/12/18 12:03:35;;;;;;;38.80;20.40;;;;;;;1.84;84.88;101202.01;103263;1316;112569;-73
2021/12/18 12:06:26;;;;;;;36.00;20.40;;;;;;;1.83;84.80;101204.56;103251;1320;108999;-71
2021/12/18 12:09:23;;;;;;;41.20;20.90;;;;;;;1.82;84.69;101198.90;103335;1316;108787;-72
2021/12/18 12:11:58;;;;;;;38.30;19.80;;;;;;;1.78;84.66;101185.77;103254;1316;97862;-72
2021/12/18 12:14:31;;;;;;;32.40;17.60;;;;;;;1.76;84.96;101182.13;103912;1316;97857;-73
2021/12/18 12:17:08;;;;;;;32.00;18.20;;;;;;;1.77;84.93;101181.98;103192;1317;114543;-73